sensor_id;sensor_type;location;lat;lon;timestamp;temperature;humidity
5226;DHT22;2632;51.666;7.146;2023-12-28T00:01:46;9.50;99.90
5226;DHT22;2632;51.666;7.146;2023-12-28T00:04:13;9.40;99.90
5226;DHT22;2632;51.666;7.146;2023-12-28T00:06:39;9.40;99.90
5226;DHT22;2632;51.666;7.146;2023-12-28T00:09:07;9.40;99.90
5226;DHT22;2632;51.666;7.146;2023-12-28T00:11:38;9.40;99.90
5226;DHT22;2632;51.666;7.146;2023-12-28T00:14:05;9.40;99.90
5226;DHT22;2632;51.666;7.146;2023-12-28T00:16:32;9.40;99.90
5226;DHT22;2632;51.666;7.146;2023-12-28T00:18:59;9.40;99.90
5226;DHT22;2632;51.666;7.146;2023-12-28T00:21:28;9.40;99.90
5226;DHT22;2632;51.666;7.146;2023-12-28T00:23:55;9.50;99.90
5226;DHT22;2632;51.666;7.146;2023-12-28T00:26:22;9.50;99.90
5226;DHT22;2632;51.666;7.146;2023-12-28T00:28:49;9.50;99.90
5226;DHT22;2632;51.666;7.146;2023-12-28T00:31:15;9.60;99.90
5226;DHT22;2632;51.666;7.146;2023-12-28T00:33:42;9.50;99.90
5226;DHT22;2632;51.666;7.146;2023-12-28T00:36:09;9.50;99.90
5226;DHT22;2632;51.666;7.146;2023-12-28T00:38:36;9.50;99.90
5226;DHT22;2632;51.666;7.146;2023-12-28T00:41:02;9.60;99.90
5226;DHT22;2632;51.666;7.146;2023-12-28T00:43:29;9.50;99.90
5226;DHT22;2632;51.666;7.146;2023-12-28T00:45:56;9.50;99.90
5226;DHT22;2632;51.666;7.146;2023-12-28T00:48:22;9.60;99.90
5226;DHT22;2632;51.666;7.146;2023-12-28T00:50:49;9.60;99.90
5226;DHT22;2632;51.666;7.146;2023-12-28T00:53:16;9.60;99.90
5226;DHT22;2632;51.666;7.146;2023-12-28T00:55:42;9.70;99.90
5226;DHT22;2632;51.666;7.146;2023-12-28T00:58:09;9.70;99.90
5226;DHT22;2632;51.666;7.146;2023-12-28T01:00:35;9.70;99.90
5226;DHT22;2632;51.666;7.146;2023-12-28T01:03:02;9.70;99.90
5226;DHT22;2632;51.666;7.146;2023-12-28T01:05:29;9.70;99.90
5226;DHT22;2632;51.666;7.146;2023-12-28T01:07:56;9.70;99.90
5226;DHT22;2632;51.666;7.146;2023-12-28T01:10:23;9.70;99.90
5226;DHT22;2632;51.666;7.146;2023-12-28T01:12:49;9.80;99.90
5226;DHT22;2632;51.666;7.146;2023-12-28T01:15:16;9.80;99.90
5226;DHT22;2632;51.666;7.146;2023-12-28T01:17:44;9.80;99.90
5226;DHT22;2632;51.666;7.146;2023-12-28T01:20:11;9.80;99.90
5226;DHT22;2632;51.666;7.146;2023-12-28T01:22:38;9.80;99.90
5226;DHT22;2632;51.666;7.146;2023-12-28T01:25:05;9.80;99.90
5226;DHT22;2632;51.666;7.146;2023-12-28T01:27:32;9.80;99.90
5226;DHT22;2632;51.666;7.146;2023-12-28T01:29:58;9.80;99.90
5226;DHT22;2632;51.666;7.146;2023-12-28T01:32:25;9.80;99.90
5226;DHT22;2632;51.666;7.146;2023-12-28T01:34:51;9.80;99.90
5226;DHT22;2632;51.666;7.146;2023-12-28T01:37:18;9.80;99.90
5226;DHT22;2632;51.666;7.146;2023-12-28T01:39:45;9.90;99.90
5226;DHT22;2632;51.666;7.146;2023-12-28T01:42:12;9.90;99.90
5226;DHT22;2632;51.666;7.146;2023-12-28T01:44:38;9.80;99.90
5226;DHT22;2632;51.666;7.146;2023-12-28T01:47:06;9.90;99.90
5226;DHT22;2632;51.666;7.146;2023-12-28T01:49:33;10.00;99.90
5226;DHT22;2632;51.666;7.146;2023-12-28T01:52:01;10.00;99.90
5226;DHT22;2632;51.666;7.146;2023-12-28T01:54:29;10.00;99.90
5226;DHT22;2632;51.666;7.146;2023-12-28T01:56:57;10.00;99.90
5226;DHT22;2632;51.666;7.146;2023-12-28T01:59:25;10.10;99.90
5226;DHT22;2632;51.666;7.146;2023-12-28T02:01:52;10.10;99.90
5226;DHT22;2632;51.666;7.146;2023-12-28T02:04:19;10.10;99.90
5226;DHT22;2632;51.666;7.146;2023-12-28T02:06:56;10.10;99.90
5226;DHT22;2632;51.666;7.146;2023-12-28T02:09:24;10.10;99.90
5226;DHT22;2632;51.666;7.146;2023-12-28T02:11:51;10.10;99.90
5226;DHT22;2632;51.666;7.146;2023-12-28T02:14:18;10.10;99.90
5226;DHT22;2632;51.666;7.146;2023-12-28T02:16:56;10.10;99.90
5226;DHT22;2632;51.666;7.146;2023-12-28T02:22:14;10.10;99.90
5226;DHT22;2632;51.666;7.146;2023-12-28T02:25:04;10.20;99.90
5226;DHT22;2632;51.666;7.146;2023-12-28T02:27:42;10.10;99.90
5226;DHT22;2632;51.666;7.146;2023-12-28T02:30:10;10.20;99.90
5226;DHT22;2632;51.666;7.146;2023-12-28T02:35:51;10.20;99.90
5226;DHT22;2632;51.666;7.146;2023-12-28T02:38:19;10.30;99.90
5226;DHT22;2632;51.666;7.146;2023-12-28T02:40:47;10.30;99.90
5226;DHT22;2632;51.666;7.146;2023-12-28T02:43:15;10.30;99.90
5226;DHT22;2632;51.666;7.146;2023-12-28T02:45:42;10.30;99.90
5226;DHT22;2632;51.666;7.146;2023-12-28T02:48:08;10.40;99.90
5226;DHT22;2632;51.666;7.146;2023-12-28T02:50:35;10.40;99.90
5226;DHT22;2632;51.666;7.146;2023-12-28T02:53:02;10.40;99.90
5226;DHT22;2632;51.666;7.146;2023-12-28T02:55:29;10.40;99.90
5226;DHT22;2632;51.666;7.146;2023-12-28T02:57:57;10.40;99.90
5226;DHT22;2632;51.666;7.146;2023-12-28T03:00:28;10.40;99.90
5226;DHT22;2632;51.666;7.146;2023-12-28T03:02:56;10.40;99.90
5226;DHT22;2632;51.666;7.146;2023-12-28T03:05:22;10.40;99.90
5226;DHT22;2632;51.666;7.146;2023-12-28T03:07:49;10.40;99.90
5226;DHT22;2632;51.666;7.146;2023-12-28T03:10:16;10.40;99.90
5226;DHT22;2632;51.666;7.146;2023-12-28T03:12:43;10.40;99.90
5226;DHT22;2632;51.666;7.146;2023-12-28T03:15:09;10.40;99.90
5226;DHT22;2632;51.666;7.146;2023-12-28T03:17:36;10.40;99.90
5226;DHT22;2632;51.666;7.146;2023-12-28T03:20:04;10.40;99.90
5226;DHT22;2632;51.666;7.146;2023-12-28T03:22:31;10.40;99.90
5226;DHT22;2632;51.666;7.146;2023-12-28T03:24:58;10.40;99.90
5226;DHT22;2632;51.666;7.146;2023-12-28T03:27:24;10.40;99.90
5226;DHT22;2632;51.666;7.146;2023-12-28T03:29:51;10.50;99.90
5226;DHT22;2632;51.666;7.146;2023-12-28T03:32:18;10.40;99.90
5226;DHT22;2632;51.666;7.146;2023-12-28T03:34:44;10.40;99.90
5226;DHT22;2632;51.666;7.146;2023-12-28T03:37:11;10.40;99.90
5226;DHT22;2632;51.666;7.146;2023-12-28T03:39:38;10.40;99.90
5226;DHT22;2632;51.666;7.146;2023-12-28T03:42:05;10.40;99.90
5226;DHT22;2632;51.666;7.146;2023-12-28T03:44:31;10.40;99.90
5226;DHT22;2632;51.666;7.146;2023-12-28T03:46:58;10.40;99.90
5226;DHT22;2632;51.666;7.146;2023-12-28T03:49:25;10.40;99.90
5226;DHT22;2632;51.666;7.146;2023-12-28T03:51:52;10.30;99.90
5226;DHT22;2632;51.666;7.146;2023-12-28T03:54:19;10.30;99.90
5226;DHT22;2632;51.666;7.146;2023-12-28T03:56:46;10.30;99.90
5226;DHT22;2632;51.666;7.146;2023-12-28T03:59:14;10.40;99.90
5226;DHT22;2632;51.666;7.146;2023-12-28T04:01:44;10.40;99.90
5226;DHT22;2632;51.666;7.146;2023-12-28T04:04:11;10.30;99.90
5226;DHT22;2632;51.666;7.146;2023-12-28T04:06:38;10.30;99.90
5226;DHT22;2632;51.666;7.146;2023-12-28T04:09:05;10.40;99.90
5226;DHT22;2632;51.666;7.146;2023-12-28T04:11:32;10.40;99.90
5226;DHT22;2632;51.666;7.146;2023-12-28T04:13:58;10.30;99.90
5226;DHT22;2632;51.666;7.146;2023-12-28T04:16:25;10.30;99.90
5226;DHT22;2632;51.666;7.146;2023-12-28T04:18:52;10.40;99.90
5226;DHT22;2632;51.666;7.146;2023-12-28T04:21:19;10.40;99.90
5226;DHT22;2632;51.666;7.146;2023-12-28T04:23:46;10.40;99.90
5226;DHT22;2632;51.666;7.146;2023-12-28T04:26:13;10.30;99.90
5226;DHT22;2632;51.666;7.146;2023-12-28T04:28:39;10.30;99.90
5226;DHT22;2632;51.666;7.146;2023-12-28T04:31:06;10.30;99.90
5226;DHT22;2632;51.666;7.146;2023-12-28T04:33:34;10.40;99.90
5226;DHT22;2632;51.666;7.146;2023-12-28T04:36:04;10.40;99.90
5226;DHT22;2632;51.666;7.146;2023-12-28T04:38:32;10.50;99.90
5226;DHT22;2632;51.666;7.146;2023-12-28T04:40:59;10.50;99.90
5226;DHT22;2632;51.666;7.146;2023-12-28T04:43:28;10.50;99.90
5226;DHT22;2632;51.666;7.146;2023-12-28T04:45:54;10.50;99.90
5226;DHT22;2632;51.666;7.146;2023-12-28T04:48:21;10.50;99.90
5226;DHT22;2632;51.666;7.146;2023-12-28T04:50:51;10.40;99.90
5226;DHT22;2632;51.666;7.146;2023-12-28T04:53:19;10.50;99.90
5226;DHT22;2632;51.666;7.146;2023-12-28T04:55:46;10.50;99.90
5226;DHT22;2632;51.666;7.146;2023-12-28T04:58:12;10.50;99.90
5226;DHT22;2632;51.666;7.146;2023-12-28T05:00:39;10.50;99.90
5226;DHT22;2632;51.666;7.146;2023-12-28T05:03:06;10.50;99.90
5226;DHT22;2632;51.666;7.146;2023-12-28T05:05:33;10.50;99.90
5226;DHT22;2632;51.666;7.146;2023-12-28T05:08:00;10.50;99.90
5226;DHT22;2632;51.666;7.146;2023-12-28T05:10:27;10.60;99.90
5226;DHT22;2632;51.666;7.146;2023-12-28T05:12:54;10.50;99.90
5226;DHT22;2632;51.666;7.146;2023-12-28T05:15:28;10.50;99.90
5226;DHT22;2632;51.666;7.146;2023-12-28T05:17:54;10.50;99.90
5226;DHT22;2632;51.666;7.146;2023-12-28T05:20:22;10.50;99.90
5226;DHT22;2632;51.666;7.146;2023-12-28T05:22:48;10.60;99.90
5226;DHT22;2632;51.666;7.146;2023-12-28T05:25:15;10.60;99.90
5226;DHT22;2632;51.666;7.146;2023-12-28T05:27:42;10.60;99.90
5226;DHT22;2632;51.666;7.146;2023-12-28T05:30:09;10.70;99.90
5226;DHT22;2632;51.666;7.146;2023-12-28T05:32:37;10.60;99.90
5226;DHT22;2632;51.666;7.146;2023-12-28T05:35:05;10.70;99.90
5226;DHT22;2632;51.666;7.146;2023-12-28T05:37:31;10.70;99.90
5226;DHT22;2632;51.666;7.146;2023-12-28T05:39:58;10.70;99.90
5226;DHT22;2632;51.666;7.146;2023-12-28T05:42:25;10.60;99.90
5226;DHT22;2632;51.666;7.146;2023-12-28T05:44:51;10.70;99.90
5226;DHT22;2632;51.666;7.146;2023-12-28T05:47:18;10.60;99.90
5226;DHT22;2632;51.666;7.146;2023-12-28T05:49:45;10.70;99.90
5226;DHT22;2632;51.666;7.146;2023-12-28T05:52:12;10.70;99.90
5226;DHT22;2632;51.666;7.146;2023-12-28T05:54:41;10.70;99.90
5226;DHT22;2632;51.666;7.146;2023-12-28T05:57:10;10.70;99.90
5226;DHT22;2632;51.666;7.146;2023-12-28T05:59:39;10.70;99.90
5226;DHT22;2632;51.666;7.146;2023-12-28T06:02:06;10.70;99.90
5226;DHT22;2632;51.666;7.146;2023-12-28T06:04:33;10.70;99.90
5226;DHT22;2632;51.666;7.146;2023-12-28T06:07:03;10.70;99.90
5226;DHT22;2632;51.666;7.146;2023-12-28T06:09:30;10.70;99.90
5226;DHT22;2632;51.666;7.146;2023-12-28T06:11:57;10.80;99.90
5226;DHT22;2632;51.666;7.146;2023-12-28T06:14:23;10.80;99.90
5226;DHT22;2632;51.666;7.146;2023-12-28T06:16:50;10.80;99.90
5226;DHT22;2632;51.666;7.146;2023-12-28T06:19:17;10.80;99.90
5226;DHT22;2632;51.666;7.146;2023-12-28T06:21:44;10.80;99.90
5226;DHT22;2632;51.666;7.146;2023-12-28T06:24:10;10.80;99.90
5226;DHT22;2632;51.666;7.146;2023-12-28T06:26:44;10.90;99.90
5226;DHT22;2632;51.666;7.146;2023-12-28T06:29:11;10.80;99.90
5226;DHT22;2632;51.666;7.146;2023-12-28T06:31:37;10.80;99.90
5226;DHT22;2632;51.666;7.146;2023-12-28T06:34:05;10.80;99.90
5226;DHT22;2632;51.666;7.146;2023-12-28T06:36:35;10.90;99.90
5226;DHT22;2632;51.666;7.146;2023-12-28T06:39:02;10.90;99.90
5226;DHT22;2632;51.666;7.146;2023-12-28T06:41:29;10.80;99.90
5226;DHT22;2632;51.666;7.146;2023-12-28T06:43:55;10.80;99.90
5226;DHT22;2632;51.666;7.146;2023-12-28T06:46:22;10.90;99.90
5226;DHT22;2632;51.666;7.146;2023-12-28T06:48:49;10.80;99.90
5226;DHT22;2632;51.666;7.146;2023-12-28T06:51:19;10.90;99.90
5226;DHT22;2632;51.666;7.146;2023-12-28T06:53:48;11.00;99.90
5226;DHT22;2632;51.666;7.146;2023-12-28T06:56:15;10.80;99.90
5226;DHT22;2632;51.666;7.146;2023-12-28T06:58:42;10.80;99.90
5226;DHT22;2632;51.666;7.146;2023-12-28T07:01:09;10.70;99.90
5226;DHT22;2632;51.666;7.146;2023-12-28T07:03:37;10.80;99.90
5226;DHT22;2632;51.666;7.146;2023-12-28T07:06:04;10.80;99.90
5226;DHT22;2632;51.666;7.146;2023-12-28T07:08:31;10.80;99.90
5226;DHT22;2632;51.666;7.146;2023-12-28T07:11:02;10.90;99.90
5226;DHT22;2632;51.666;7.146;2023-12-28T07:13:29;10.90;99.90
5226;DHT22;2632;51.666;7.146;2023-12-28T07:15:56;10.90;99.90
5226;DHT22;2632;51.666;7.146;2023-12-28T07:18:25;10.90;99.90
5226;DHT22;2632;51.666;7.146;2023-12-28T07:20:52;10.90;99.90
5226;DHT22;2632;51.666;7.146;2023-12-28T07:23:19;10.90;99.90
5226;DHT22;2632;51.666;7.146;2023-12-28T07:25:46;10.80;99.90
5226;DHT22;2632;51.666;7.146;2023-12-28T07:28:12;10.90;99.90
5226;DHT22;2632;51.666;7.146;2023-12-28T07:30:39;10.90;99.90
5226;DHT22;2632;51.666;7.146;2023-12-28T07:33:07;10.90;99.90
5226;DHT22;2632;51.666;7.146;2023-12-28T07:35:34;10.90;99.90
5226;DHT22;2632;51.666;7.146;2023-12-28T07:38:01;10.90;99.90
5226;DHT22;2632;51.666;7.146;2023-12-28T07:40:28;10.90;99.90
5226;DHT22;2632;51.666;7.146;2023-12-28T07:42:54;10.90;99.90
5226;DHT22;2632;51.666;7.146;2023-12-28T07:45:21;10.90;99.90
5226;DHT22;2632;51.666;7.146;2023-12-28T07:47:50;10.90;99.90
5226;DHT22;2632;51.666;7.146;2023-12-28T07:50:18;10.90;99.90
5226;DHT22;2632;51.666;7.146;2023-12-28T07:52:45;10.90;99.90
5226;DHT22;2632;51.666;7.146;2023-12-28T07:55:15;10.90;99.90
5226;DHT22;2632;51.666;7.146;2023-12-28T07:57:43;10.90;99.90
5226;DHT22;2632;51.666;7.146;2023-12-28T08:00:10;10.90;99.90
5226;DHT22;2632;51.666;7.146;2023-12-28T08:02:37;10.90;99.90
5226;DHT22;2632;51.666;7.146;2023-12-28T08:05:04;10.90;99.90
5226;DHT22;2632;51.666;7.146;2023-12-28T08:07:31;11.00;99.90
5226;DHT22;2632;51.666;7.146;2023-12-28T08:09:58;10.90;99.90
5226;DHT22;2632;51.666;7.146;2023-12-28T08:12:25;11.00;99.90
5226;DHT22;2632;51.666;7.146;2023-12-28T08:14:55;11.00;99.90
5226;DHT22;2632;51.666;7.146;2023-12-28T08:17:21;10.90;99.90
5226;DHT22;2632;51.666;7.146;2023-12-28T08:19:48;11.00;99.90
5226;DHT22;2632;51.666;7.146;2023-12-28T08:22:16;11.00;99.90
5226;DHT22;2632;51.666;7.146;2023-12-28T08:24:42;11.00;99.90
5226;DHT22;2632;51.666;7.146;2023-12-28T08:27:09;11.00;99.90
5226;DHT22;2632;51.666;7.146;2023-12-28T08:29:36;11.00;99.90
5226;DHT22;2632;51.666;7.146;2023-12-28T08:32:03;11.00;99.90
5226;DHT22;2632;51.666;7.146;2023-12-28T08:34:30;11.10;99.90
5226;DHT22;2632;51.666;7.146;2023-12-28T08:36:57;11.00;99.90
5226;DHT22;2632;51.666;7.146;2023-12-28T08:39:23;11.00;99.90
5226;DHT22;2632;51.666;7.146;2023-12-28T08:41:50;11.10;99.90
5226;DHT22;2632;51.666;7.146;2023-12-28T08:44:17;11.10;99.90
5226;DHT22;2632;51.666;7.146;2023-12-28T08:46:43;11.10;99.90
5226;DHT22;2632;51.666;7.146;2023-12-28T08:49:10;11.10;99.90
5226;DHT22;2632;51.666;7.146;2023-12-28T08:51:37;11.10;99.90
5226;DHT22;2632;51.666;7.146;2023-12-28T08:54:06;11.10;99.90
5226;DHT22;2632;51.666;7.146;2023-12-28T08:56:33;11.10;99.90
5226;DHT22;2632;51.666;7.146;2023-12-28T08:58:59;11.10;99.90
5226;DHT22;2632;51.666;7.146;2023-12-28T09:01:26;11.20;99.90
5226;DHT22;2632;51.666;7.146;2023-12-28T09:03:53;11.10;99.90
5226;DHT22;2632;51.666;7.146;2023-12-28T09:06:21;11.20;99.90
5226;DHT22;2632;51.666;7.146;2023-12-28T09:08:50;11.20;99.90
5226;DHT22;2632;51.666;7.146;2023-12-28T09:11:18;11.20;99.90
5226;DHT22;2632;51.666;7.146;2023-12-28T09:13:45;11.20;99.90
5226;DHT22;2632;51.666;7.146;2023-12-28T09:16:13;11.20;99.90
5226;DHT22;2632;51.666;7.146;2023-12-28T09:18:41;11.20;99.90
5226;DHT22;2632;51.666;7.146;2023-12-28T09:21:09;11.20;99.90
5226;DHT22;2632;51.666;7.146;2023-12-28T09:23:36;11.30;99.90
5226;DHT22;2632;51.666;7.146;2023-12-28T09:26:04;11.20;99.90
5226;DHT22;2632;51.666;7.146;2023-12-28T09:28:32;11.40;99.90
5226;DHT22;2632;51.666;7.146;2023-12-28T09:31:00;11.50;99.90
5226;DHT22;2632;51.666;7.146;2023-12-28T09:33:27;11.60;99.90
5226;DHT22;2632;51.666;7.146;2023-12-28T09:35:54;11.60;99.90
5226;DHT22;2632;51.666;7.146;2023-12-28T09:38:21;11.50;99.90
5226;DHT22;2632;51.666;7.146;2023-12-28T09:40:53;11.60;99.90
5226;DHT22;2632;51.666;7.146;2023-12-28T09:45:52;11.60;99.90
5226;DHT22;2632;51.666;7.146;2023-12-28T09:48:21;11.70;99.90
5226;DHT22;2632;51.666;7.146;2023-12-28T09:50:53;11.60;99.90
5226;DHT22;2632;51.666;7.146;2023-12-28T09:53:22;11.50;99.90
5226;DHT22;2632;51.666;7.146;2023-12-28T09:55:50;11.60;99.90
5226;DHT22;2632;51.666;7.146;2023-12-28T09:58:19;11.60;99.90
5226;DHT22;2632;51.666;7.146;2023-12-28T10:00:47;11.60;99.90
5226;DHT22;2632;51.666;7.146;2023-12-28T10:03:15;11.50;99.90
5226;DHT22;2632;51.666;7.146;2023-12-28T10:05:46;11.50;99.90
5226;DHT22;2632;51.666;7.146;2023-12-28T10:08:14;11.60;99.90
5226;DHT22;2632;51.666;7.146;2023-12-28T10:10:43;11.60;99.90
5226;DHT22;2632;51.666;7.146;2023-12-28T10:13:13;11.60;99.90
5226;DHT22;2632;51.666;7.146;2023-12-28T10:15:43;11.60;99.90
5226;DHT22;2632;51.666;7.146;2023-12-28T10:18:10;11.60;99.90
5226;DHT22;2632;51.666;7.146;2023-12-28T10:20:38;11.70;99.90
5226;DHT22;2632;51.666;7.146;2023-12-28T10:23:05;12.00;99.90
5226;DHT22;2632;51.666;7.146;2023-12-28T10:25:34;12.00;99.90
5226;DHT22;2632;51.666;7.146;2023-12-28T10:28:05;11.80;99.90
5226;DHT22;2632;51.666;7.146;2023-12-28T10:30:34;11.60;99.90
5226;DHT22;2632;51.666;7.146;2023-12-28T10:33:05;11.60;99.90
5226;DHT22;2632;51.666;7.146;2023-12-28T10:35:33;11.60;99.90
5226;DHT22;2632;51.666;7.146;2023-12-28T10:38:01;11.50;99.90
5226;DHT22;2632;51.666;7.146;2023-12-28T10:40:31;11.50;99.90
5226;DHT22;2632;51.666;7.146;2023-12-28T10:43:00;11.50;99.90
5226;DHT22;2632;51.666;7.146;2023-12-28T10:45:32;11.40;99.90
5226;DHT22;2632;51.666;7.146;2023-12-28T10:48:05;11.40;99.90
5226;DHT22;2632;51.666;7.146;2023-12-28T10:50:47;11.50;99.90
5226;DHT22;2632;51.666;7.146;2023-12-28T10:53:38;11.60;99.90
5226;DHT22;2632;51.666;7.146;2023-12-28T11:01:55;11.50;99.90
5226;DHT22;2632;51.666;7.146;2023-12-28T11:04:40;11.60;99.90
5226;DHT22;2632;51.666;7.146;2023-12-28T11:07:10;11.60;99.90
5226;DHT22;2632;51.666;7.146;2023-12-28T11:09:41;11.70;99.90
5226;DHT22;2632;51.666;7.146;2023-12-28T11:12:09;11.70;99.90
5226;DHT22;2632;51.666;7.146;2023-12-28T11:14:40;11.70;99.90
5226;DHT22;2632;51.666;7.146;2023-12-28T11:17:06;11.70;99.90
5226;DHT22;2632;51.666;7.146;2023-12-28T11:19:34;11.70;99.90
5226;DHT22;2632;51.666;7.146;2023-12-28T11:22:03;11.60;99.90
5226;DHT22;2632;51.666;7.146;2023-12-28T11:24:31;11.60;99.90
5226;DHT22;2632;51.666;7.146;2023-12-28T11:26:58;11.70;99.90
5226;DHT22;2632;51.666;7.146;2023-12-28T11:29:25;11.60;99.90
5226;DHT22;2632;51.666;7.146;2023-12-28T11:31:52;11.70;99.90
5226;DHT22;2632;51.666;7.146;2023-12-28T11:34:24;11.70;99.90
5226;DHT22;2632;51.666;7.146;2023-12-28T11:36:53;11.60;99.90
5226;DHT22;2632;51.666;7.146;2023-12-28T11:39:34;11.70;99.90
5226;DHT22;2632;51.666;7.146;2023-12-28T11:42:06;11.80;99.90
5226;DHT22;2632;51.666;7.146;2023-12-28T11:44:38;11.90;99.90
5226;DHT22;2632;51.666;7.146;2023-12-28T11:49:48;12.00;99.90
5226;DHT22;2632;51.666;7.146;2023-12-28T11:52:28;12.10;99.90
5226;DHT22;2632;51.666;7.146;2023-12-28T11:54:55;12.00;99.90
5226;DHT22;2632;51.666;7.146;2023-12-28T11:57:22;12.00;99.90
5226;DHT22;2632;51.666;7.146;2023-12-28T11:59:54;12.00;99.90
5226;DHT22;2632;51.666;7.146;2023-12-28T12:02:21;11.90;99.90
5226;DHT22;2632;51.666;7.146;2023-12-28T12:04:48;11.90;99.90
5226;DHT22;2632;51.666;7.146;2023-12-28T12:07:18;11.90;99.90
5226;DHT22;2632;51.666;7.146;2023-12-28T12:09:44;12.00;99.90
5226;DHT22;2632;51.666;7.146;2023-12-28T12:12:11;12.00;99.90
5226;DHT22;2632;51.666;7.146;2023-12-28T12:14:38;12.10;99.90
5226;DHT22;2632;51.666;7.146;2023-12-28T12:17:06;12.10;99.90
5226;DHT22;2632;51.666;7.146;2023-12-28T12:19:32;12.20;99.90
5226;DHT22;2632;51.666;7.146;2023-12-28T12:21:59;12.20;99.90
5226;DHT22;2632;51.666;7.146;2023-12-28T12:24:26;12.20;99.90
5226;DHT22;2632;51.666;7.146;2023-12-28T12:26:53;12.10;99.90
5226;DHT22;2632;51.666;7.146;2023-12-28T12:29:19;12.20;99.90
5226;DHT22;2632;51.666;7.146;2023-12-28T12:31:54;12.20;99.90
5226;DHT22;2632;51.666;7.146;2023-12-28T12:34:20;12.20;99.90
5226;DHT22;2632;51.666;7.146;2023-12-28T12:36:48;12.20;99.90
5226;DHT22;2632;51.666;7.146;2023-12-28T12:39:18;12.30;99.90
5226;DHT22;2632;51.666;7.146;2023-12-28T12:41:49;12.40;99.90
5226;DHT22;2632;51.666;7.146;2023-12-28T12:44:15;12.50;99.90
5226;DHT22;2632;51.666;7.146;2023-12-28T12:46:45;12.50;99.90
5226;DHT22;2632;51.666;7.146;2023-12-28T12:49:11;12.40;99.90
5226;DHT22;2632;51.666;7.146;2023-12-28T12:51:38;12.50;99.90
5226;DHT22;2632;51.666;7.146;2023-12-28T12:54:07;12.60;99.90
5226;DHT22;2632;51.666;7.146;2023-12-28T12:56:35;12.50;99.90
5226;DHT22;2632;51.666;7.146;2023-12-28T12:59:02;12.50;99.90
5226;DHT22;2632;51.666;7.146;2023-12-28T13:01:28;12.40;99.90
5226;DHT22;2632;51.666;7.146;2023-12-28T13:03:56;12.40;99.90
5226;DHT22;2632;51.666;7.146;2023-12-28T13:06:23;12.40;99.90
5226;DHT22;2632;51.666;7.146;2023-12-28T13:08:50;12.50;99.90
5226;DHT22;2632;51.666;7.146;2023-12-28T13:11:17;12.50;99.90
5226;DHT22;2632;51.666;7.146;2023-12-28T13:13:43;12.50;99.90
5226;DHT22;2632;51.666;7.146;2023-12-28T13:16:10;12.40;99.90
5226;DHT22;2632;51.666;7.146;2023-12-28T13:18:37;12.40;99.90
5226;DHT22;2632;51.666;7.146;2023-12-28T13:21:04;12.30;99.90
5226;DHT22;2632;51.666;7.146;2023-12-28T13:23:30;12.20;99.90
5226;DHT22;2632;51.666;7.146;2023-12-28T13:25:57;12.20;99.90
5226;DHT22;2632;51.666;7.146;2023-12-28T13:28:24;12.30;99.90
5226;DHT22;2632;51.666;7.146;2023-12-28T13:30:50;12.30;99.90
5226;DHT22;2632;51.666;7.146;2023-12-28T13:33:17;12.30;99.90
5226;DHT22;2632;51.666;7.146;2023-12-28T13:35:44;12.30;99.90
5226;DHT22;2632;51.666;7.146;2023-12-28T13:38:11;12.30;99.90
5226;DHT22;2632;51.666;7.146;2023-12-28T13:40:38;12.30;99.90
5226;DHT22;2632;51.666;7.146;2023-12-28T13:43:04;12.30;99.90
5226;DHT22;2632;51.666;7.146;2023-12-28T13:45:31;12.30;99.90
5226;DHT22;2632;51.666;7.146;2023-12-28T13:47:58;12.30;99.90
5226;DHT22;2632;51.666;7.146;2023-12-28T13:50:25;12.30;99.90
5226;DHT22;2632;51.666;7.146;2023-12-28T13:52:51;12.20;99.90
5226;DHT22;2632;51.666;7.146;2023-12-28T13:55:18;12.20;99.90
5226;DHT22;2632;51.666;7.146;2023-12-28T13:57:45;12.20;99.90
5226;DHT22;2632;51.666;7.146;2023-12-28T14:00:12;12.10;99.90
5226;DHT22;2632;51.666;7.146;2023-12-28T14:02:40;12.20;99.90
5226;DHT22;2632;51.666;7.146;2023-12-28T14:05:07;12.40;99.90
5226;DHT22;2632;51.666;7.146;2023-12-28T14:07:34;12.50;99.90
5226;DHT22;2632;51.666;7.146;2023-12-28T14:10:01;12.40;99.90
5226;DHT22;2632;51.666;7.146;2023-12-28T14:12:28;12.20;99.80
5226;DHT22;2632;51.666;7.146;2023-12-28T14:14:55;12.10;99.90
5226;DHT22;2632;51.666;7.146;2023-12-28T14:17:21;12.20;99.90
5226;DHT22;2632;51.666;7.146;2023-12-28T14:19:48;12.10;99.90
5226;DHT22;2632;51.666;7.146;2023-12-28T14:22:15;12.10;99.90
5226;DHT22;2632;51.666;7.146;2023-12-28T14:24:42;12.10;99.90
5226;DHT22;2632;51.666;7.146;2023-12-28T14:27:09;12.10;99.90
5226;DHT22;2632;51.666;7.146;2023-12-28T14:29:38;12.00;99.90
5226;DHT22;2632;51.666;7.146;2023-12-28T14:32:05;12.00;99.90
5226;DHT22;2632;51.666;7.146;2023-12-28T14:34:33;12.00;99.90
5226;DHT22;2632;51.666;7.146;2023-12-28T14:36:59;12.00;99.90
5226;DHT22;2632;51.666;7.146;2023-12-28T14:39:26;12.00;99.90
5226;DHT22;2632;51.666;7.146;2023-12-28T14:41:53;12.00;99.90
5226;DHT22;2632;51.666;7.146;2023-12-28T14:44:20;12.00;99.90
5226;DHT22;2632;51.666;7.146;2023-12-28T14:46:46;12.00;99.90
5226;DHT22;2632;51.666;7.146;2023-12-28T14:49:13;11.90;99.90
5226;DHT22;2632;51.666;7.146;2023-12-28T14:51:40;11.90;99.90
5226;DHT22;2632;51.666;7.146;2023-12-28T14:54:07;11.90;99.90
5226;DHT22;2632;51.666;7.146;2023-12-28T14:56:33;11.90;99.90
5226;DHT22;2632;51.666;7.146;2023-12-28T14:59:14;12.20;99.90
5226;DHT22;2632;51.666;7.146;2023-12-28T15:01:40;12.40;99.90
5226;DHT22;2632;51.666;7.146;2023-12-28T15:04:07;12.10;99.90
5226;DHT22;2632;51.666;7.146;2023-12-28T15:06:35;12.10;99.90
5226;DHT22;2632;51.666;7.146;2023-12-28T15:09:02;12.00;99.90
5226;DHT22;2632;51.666;7.146;2023-12-28T15:11:29;11.90;99.90
5226;DHT22;2632;51.666;7.146;2023-12-28T15:14:13;11.90;99.90
5226;DHT22;2632;51.666;7.146;2023-12-28T15:16:40;11.90;99.90
5226;DHT22;2632;51.666;7.146;2023-12-28T15:19:07;11.90;99.90
5226;DHT22;2632;51.666;7.146;2023-12-28T15:21:34;11.90;99.90
5226;DHT22;2632;51.666;7.146;2023-12-28T15:24:01;11.90;99.90
5226;DHT22;2632;51.666;7.146;2023-12-28T15:26:28;11.80;99.90
5226;DHT22;2632;51.666;7.146;2023-12-28T15:28:55;11.80;99.90
5226;DHT22;2632;51.666;7.146;2023-12-28T15:31:22;11.80;99.90
5226;DHT22;2632;51.666;7.146;2023-12-28T15:33:49;11.80;99.90
5226;DHT22;2632;51.666;7.146;2023-12-28T15:36:16;11.70;99.90
5226;DHT22;2632;51.666;7.146;2023-12-28T15:38:43;11.70;99.90
5226;DHT22;2632;51.666;7.146;2023-12-28T15:41:10;11.70;99.90
5226;DHT22;2632;51.666;7.146;2023-12-28T15:43:37;11.60;99.90
5226;DHT22;2632;51.666;7.146;2023-12-28T15:46:03;11.60;99.90
5226;DHT22;2632;51.666;7.146;2023-12-28T15:48:30;11.70;99.90
5226;DHT22;2632;51.666;7.146;2023-12-28T15:50:57;11.60;99.90
5226;DHT22;2632;51.666;7.146;2023-12-28T15:53:24;11.60;99.90
5226;DHT22;2632;51.666;7.146;2023-12-28T15:55:51;11.60;99.90
5226;DHT22;2632;51.666;7.146;2023-12-28T15:58:34;11.60;99.90
5226;DHT22;2632;51.666;7.146;2023-12-28T16:01:01;11.60;99.90
5226;DHT22;2632;51.666;7.146;2023-12-28T16:03:28;11.50;99.90
5226;DHT22;2632;51.666;7.146;2023-12-28T16:05:55;11.60;99.90
5226;DHT22;2632;51.666;7.146;2023-12-28T16:08:22;11.50;99.90
5226;DHT22;2632;51.666;7.146;2023-12-28T16:10:49;11.50;99.90
5226;DHT22;2632;51.666;7.146;2023-12-28T16:13:15;11.50;99.90
5226;DHT22;2632;51.666;7.146;2023-12-28T16:15:42;11.50;99.90
5226;DHT22;2632;51.666;7.146;2023-12-28T16:18:10;11.50;99.90
5226;DHT22;2632;51.666;7.146;2023-12-28T16:20:37;11.60;99.90
5226;DHT22;2632;51.666;7.146;2023-12-28T16:23:04;11.50;99.90
5226;DHT22;2632;51.666;7.146;2023-12-28T16:25:31;11.60;99.90